createdAt,value
2019-05-13T00:00:16.877Z,5.03
2019-05-13T00:02:45.254Z,6.30
2019-05-13T00:05:14.729Z,10.50
2019-05-13T00:07:44.115Z,4.60
2019-05-13T00:10:14.881Z,6.83
2019-05-13T00:12:44.579Z,5.83
2019-05-13T00:15:14.612Z,6.37
2019-05-13T00:17:44.663Z,6.70
2019-05-13T00:20:14.041Z,4.63
2019-05-13T00:22:44.910Z,6.10
2019-05-13T00:25:15.121Z,7.13
2019-05-13T00:27:44.475Z,6.73
2019-05-13T00:30:14.724Z,7.47
2019-05-13T00:32:44.832Z,8.83
2019-05-13T00:35:14.264Z,6.67
2019-05-13T00:37:44.261Z,8.67
2019-05-13T00:40:14.678Z,10.60
2019-05-13T00:42:44.339Z,12.17
2019-05-13T00:45:14.503Z,7.40
2019-05-13T00:47:43.984Z,9.30
2019-05-13T00:50:14.268Z,9.87
2019-05-13T00:52:44.799Z,7.53
2019-05-13T00:55:14.689Z,5.70
2019-05-13T00:57:44.049Z,5.73
2019-05-13T01:00:14.395Z,6.50
2019-05-13T01:02:44.613Z,13.53
2019-05-13T01:05:14.733Z,7.20
2019-05-13T01:07:44.582Z,10.27
2019-05-13T01:10:14.355Z,6.57
2019-05-13T01:12:44.147Z,8.53
2019-05-13T01:15:13.473Z,7.73
2019-05-13T01:17:44.814Z,8.77
2019-05-13T01:20:14.627Z,12.20
2019-05-13T01:22:44.189Z,5.70
2019-05-13T01:25:14.738Z,7.23
2019-05-13T01:27:44.689Z,9.80
2019-05-13T01:30:14.816Z,8.90
2019-05-13T01:32:44.806Z,10.07
2019-05-13T01:35:14.789Z,9.67
2019-05-13T01:37:46.030Z,8.30
2019-05-13T01:40:15.456Z,8.37
2019-05-13T01:42:44.386Z,8.97
2019-05-13T01:45:14.572Z,12.83
2019-05-13T01:47:44.135Z,9.43
2019-05-13T01:50:14.395Z,6.80
2019-05-13T01:52:44.629Z,7.23
2019-05-13T01:55:14.626Z,15.07
2019-05-13T01:57:44.261Z,9.93
2019-05-13T02:00:14.415Z,15.47
2019-05-13T02:02:44.605Z,8.40
2019-05-13T02:05:14.224Z,13.17
2019-05-13T02:07:56.748Z,10.27
2019-05-13T02:10:16.454Z,13.73
2019-05-13T02:12:44.967Z,8.20
2019-05-13T02:15:14.781Z,10.33
2019-05-13T02:17:44.711Z,10.60
2019-05-13T02:20:14.815Z,11.00
2019-05-13T02:22:44.461Z,10.00
2019-05-13T02:25:14.102Z,8.40
2019-05-13T02:27:44.119Z,13.00
2019-05-13T02:30:15.932Z,10.17
2019-05-13T02:32:43.672Z,11.47
2019-05-13T02:35:14.049Z,15.37
2019-05-13T02:37:43.389Z,15.20
2019-05-13T02:40:13.866Z,9.57
2019-05-13T02:42:43.925Z,10.03
2019-05-13T02:45:13.840Z,9.70
2019-05-13T02:47:44.205Z,11.13
2019-05-13T02:50:13.453Z,18.13
2019-05-13T02:52:44.329Z,8.77
2019-05-13T02:55:13.054Z,12.07
2019-05-13T02:57:43.784Z,14.40
2019-05-13T03:00:13.565Z,14.20
2019-05-13T03:02:43.858Z,11.90
2019-05-13T03:05:14.118Z,12.83
2019-05-13T03:07:43.194Z,12.83
2019-05-13T03:10:14.108Z,12.50
2019-05-13T03:12:43.158Z,12.10
2019-05-13T03:15:13.667Z,9.87
2019-05-13T03:17:53.817Z,12.07
2019-05-13T03:20:23.201Z,10.97
2019-05-13T03:22:54.460Z,10.67
2019-05-13T03:25:23.221Z,12.80
2019-05-13T03:27:54.036Z,19.10
2019-05-13T03:30:25.204Z,9.60
2019-05-13T03:32:59.785Z,13.07
2019-05-13T03:35:26.484Z,16.77
2019-05-13T03:37:54.879Z,14.40
2019-05-13T03:40:23.553Z,19.37
2019-05-13T03:42:53.913Z,21.60
2019-05-13T03:45:25.491Z,18.80
2019-05-13T03:47:56.939Z,20.77
2019-05-13T03:50:25.321Z,21.10
2019-05-13T03:52:53.702Z,14.83
2019-05-13T03:55:23.453Z,15.07
2019-05-13T03:57:53.488Z,16.37
2019-05-13T04:00:23.553Z,18.00
2019-05-13T04:02:53.917Z,14.40
2019-05-13T04:05:23.197Z,16.07
2019-05-13T04:07:52.900Z,17.00
2019-05-13T04:10:22.830Z,15.07
2019-05-13T04:12:52.844Z,15.30
2019-05-13T04:15:23.704Z,14.13
2019-05-13T04:17:53.298Z,14.07
2019-05-13T04:20:23.459Z,11.80
2019-05-13T04:22:53.301Z,16.40
2019-05-13T04:25:23.401Z,12.30
2019-05-13T04:27:55.081Z,11.57
2019-05-13T04:30:23.582Z,11.97
2019-05-13T04:32:53.587Z,11.23
2019-05-13T04:35:23.951Z,10.33
2019-05-13T04:37:52.981Z,10.63
2019-05-13T04:40:23.540Z,11.20
2019-05-13T04:42:53.396Z,8.90
2019-05-13T04:45:23.888Z,14.10
2019-05-13T04:47:53.138Z,8.63
2019-05-13T04:50:22.876Z,8.53
2019-05-13T04:52:53.060Z,8.80
2019-05-13T04:55:23.139Z,12.27
2019-05-13T04:57:53.330Z,11.57
2019-05-13T05:00:49.948Z,14.23
2019-05-13T05:03:44.552Z,7.93
2019-05-13T05:06:33.155Z,13.40
2019-05-13T05:09:12.606Z,10.83
2019-05-13T05:11:55.214Z,11.33
2019-05-13T05:14:32.829Z,9.33
2019-05-13T05:17:22.302Z,10.63
2019-05-13T05:20:12.241Z,10.57
2019-05-13T05:23:11.150Z,12.43
2019-05-13T05:26:01.169Z,14.87
2019-05-13T05:28:35.178Z,11.63
2019-05-13T05:34:41.843Z,13.30
2019-05-13T05:37:33.031Z,13.63
2019-05-13T05:40:02.964Z,13.50
2019-05-13T05:42:34.434Z,13.33
2019-05-13T05:45:06.566Z,9.43
2019-05-13T05:47:37.166Z,9.33
2019-05-13T05:50:06.389Z,13.73
2019-05-13T05:52:37.934Z,12.90
2019-05-13T05:55:11.177Z,11.03
2019-05-13T05:57:42.181Z,16.17
2019-05-13T06:00:11.801Z,12.10
2019-05-13T06:02:43.447Z,11.77
2019-05-13T06:05:13.590Z,10.30
2019-05-13T06:07:42.741Z,13.07
2019-05-13T06:10:11.967Z,7.50
2019-05-13T06:12:43.377Z,11.67
2019-05-13T06:15:12.419Z,9.73
2019-05-13T06:17:41.420Z,10.97
2019-05-13T06:20:13.458Z,13.53
2019-05-13T06:22:42.561Z,11.73
2019-05-13T06:25:14.529Z,10.07
2019-05-13T06:27:42.263Z,9.37
2019-05-13T06:30:12.748Z,10.00
2019-05-13T06:32:41.834Z,8.93
2019-05-13T06:35:11.566Z,12.90
2019-05-13T06:37:41.492Z,11.00
2019-05-13T06:40:12.329Z,12.23
2019-05-13T06:42:41.788Z,9.10
2019-05-13T06:45:12.405Z,15.30
2019-05-13T06:47:41.378Z,11.43
2019-05-13T06:50:11.829Z,14.30
2019-05-13T06:52:42.447Z,13.37
2019-05-13T06:55:11.673Z,10.90
2019-05-13T06:57:42.248Z,10.83
2019-05-13T07:00:12.318Z,14.00
2019-05-13T07:02:42.728Z,10.87
2019-05-13T07:05:12.008Z,12.37
2019-05-13T07:07:42.373Z,11.63
2019-05-13T07:10:12.747Z,10.27
2019-05-13T07:12:41.681Z,10.37
2019-05-13T07:15:11.597Z,7.17
2019-05-13T07:17:41.638Z,9.37
2019-05-13T07:20:11.735Z,13.50
2019-05-13T07:22:42.056Z,11.87
2019-05-13T07:25:11.908Z,12.30
2019-05-13T07:27:42.449Z,10.57
2019-05-13T07:30:12.366Z,15.83
2019-05-13T07:32:42.093Z,7.70
2019-05-13T07:35:14.326Z,7.30
2019-05-13T07:37:43.797Z,9.40
2019-05-13T07:40:13.913Z,6.60
2019-05-13T07:42:42.310Z,9.50
2019-05-13T07:45:12.145Z,9.20
2019-05-13T07:47:41.669Z,7.53
2019-05-13T07:50:12.700Z,8.17
2019-05-13T07:52:42.233Z,10.03
2019-05-13T07:55:12.009Z,9.93
2019-05-13T07:57:42.282Z,8.33
2019-05-13T08:00:12.660Z,10.53
2019-05-13T08:02:41.818Z,9.33
2019-05-13T08:05:12.126Z,11.73
2019-05-13T08:07:42.159Z,10.57
2019-05-13T08:10:12.949Z,14.70
2019-05-13T08:12:41.435Z,11.03
2019-05-13T08:15:12.067Z,8.63
2019-05-13T08:17:46.709Z,11.53
2019-05-13T08:20:12.503Z,8.60
2019-05-13T08:22:42.510Z,10.00
2019-05-13T08:25:13.166Z,11.80
2019-05-13T08:27:42.189Z,11.87
2019-05-13T08:30:12.008Z,7.93
2019-05-13T08:32:41.927Z,9.57
2019-05-13T08:35:13.282Z,9.57
2019-05-13T08:37:41.930Z,3.87
2019-05-13T08:40:12.673Z,5.50
2019-05-13T08:42:41.677Z,6.50
2019-05-13T08:45:12.221Z,11.17
2019-05-13T08:47:41.956Z,7.43
2019-05-13T08:50:12.047Z,5.40
2019-05-13T08:52:42.235Z,5.73
2019-05-13T08:55:15.966Z,5.60
2019-05-13T08:57:42.753Z,5.83
2019-05-13T09:02:43.176Z,3.70
2019-05-13T09:05:13.200Z,5.17
2019-05-13T09:07:42.458Z,3.03
2019-05-13T09:10:12.545Z,5.73
2019-05-13T09:12:43.357Z,6.03
2019-05-13T09:15:12.704Z,6.83
2019-05-13T09:17:42.502Z,5.73
2019-05-13T09:20:11.554Z,6.23
2019-05-13T09:22:41.282Z,7.07
2019-05-13T09:25:12.508Z,4.50
2019-05-13T09:27:42.517Z,5.47
2019-05-13T09:30:11.813Z,6.93
2019-05-13T09:32:42.614Z,5.43
2019-05-13T09:35:12.007Z,5.93
2019-05-13T09:37:42.318Z,11.40
2019-05-13T09:40:11.920Z,6.43
2019-05-13T09:42:49.124Z,3.03
2019-05-13T09:45:12.750Z,5.13
2019-05-13T09:47:41.772Z,6.33
2019-05-13T09:50:27.596Z,6.53
2019-05-13T09:52:42.902Z,2.33
2019-05-13T09:55:25.584Z,3.83
2019-05-13T09:57:43.141Z,8.03
2019-05-13T10:00:13.325Z,5.47
2019-05-13T10:02:42.673Z,4.77
2019-05-13T10:05:12.550Z,7.27
2019-05-13T10:07:42.556Z,6.37
2019-05-13T10:10:12.008Z,5.33
2019-05-13T10:12:42.562Z,4.47
2019-05-13T10:15:12.704Z,5.62
2019-05-13T10:17:42.758Z,5.50
2019-05-13T10:20:12.553Z,3.77
2019-05-13T10:22:42.078Z,3.70
2019-05-13T10:25:13.505Z,3.73
2019-05-13T10:27:43.352Z,4.40
2019-05-13T10:30:14.066Z,7.37
2019-05-13T10:32:42.798Z,6.72
2019-05-13T10:35:13.431Z,7.00
2019-05-13T10:37:44.019Z,5.30
2019-05-13T10:40:12.566Z,4.28
2019-05-13T10:42:43.139Z,7.67
2019-05-13T10:45:12.907Z,6.13
2019-05-13T10:47:42.295Z,5.25
2019-05-13T10:50:11.360Z,6.75
2019-05-13T10:52:42.538Z,4.95
2019-05-13T10:55:12.601Z,4.80
2019-05-13T10:57:42.345Z,5.12
2019-05-13T11:00:12.522Z,4.25
2019-05-13T11:02:42.335Z,4.95
2019-05-13T11:05:12.853Z,5.60
2019-05-13T11:07:42.083Z,4.12
2019-05-13T11:10:13.223Z,4.75
2019-05-13T11:12:42.011Z,3.58
2019-05-13T11:15:10.473Z,4.55
2019-05-13T11:17:38.878Z,6.60
2019-05-13T11:20:08.178Z,5.97
2019-05-13T11:22:36.626Z,7.92
2019-05-13T11:25:06.608Z,4.30
2019-05-13T11:27:35.027Z,7.17
2019-05-13T11:30:08.038Z,5.30
2019-05-13T11:32:36.634Z,6.53
2019-05-13T11:35:06.893Z,4.58
2019-05-13T11:37:35.291Z,4.30
2019-05-13T11:40:06.823Z,3.62
2019-05-13T11:42:35.226Z,5.78
2019-05-13T11:45:05.153Z,8.45
2019-05-13T11:47:33.536Z,6.97
2019-05-13T11:50:02.596Z,6.92
2019-05-13T11:52:31.745Z,5.33
2019-05-13T11:55:02.657Z,6.12
2019-05-13T11:57:31.729Z,7.28
2019-05-13T12:00:02.519Z,7.72
2019-05-13T12:02:32.680Z,8.30
2019-05-13T12:05:03.775Z,5.20
2019-05-13T12:07:32.905Z,4.20
2019-05-13T12:10:02.688Z,5.17
2019-05-13T12:12:34.462Z,4.25
2019-05-13T12:15:25.913Z,4.25
2019-05-13T12:17:34.027Z,4.35
2019-05-13T12:20:03.408Z,5.28
2019-05-13T12:22:32.447Z,7.40
2019-05-13T12:25:02.197Z,5.25
2019-05-13T12:27:31.809Z,6.28
2019-05-13T12:30:03.090Z,6.22
2019-05-13T12:32:32.234Z,5.83
2019-05-13T12:35:03.490Z,6.08
2019-05-13T12:37:33.517Z,5.70
2019-05-13T12:40:03.204Z,9.28
2019-05-13T12:42:33.798Z,6.20
2019-05-13T12:45:09.294Z,3.98
2019-05-13T12:47:31.977Z,6.50
2019-05-13T12:50:03.209Z,3.83
2019-05-13T12:52:32.582Z,6.12
2019-05-13T12:55:03.354Z,4.28
2019-05-13T12:57:32.483Z,6.90
2019-05-13T13:00:02.437Z,6.45
2019-05-13T13:02:32.551Z,6.62
2019-05-13T13:05:14.057Z,3.80
2019-05-13T13:07:37.464Z,4.30
2019-05-13T13:10:01.404Z,5.15
2019-05-13T13:12:36.709Z,5.10
2019-05-13T13:15:20.330Z,4.95
2019-05-13T13:17:30.074Z,6.37
2019-05-13T13:20:06.219Z,5.78
2019-05-13T13:22:28.589Z,6.40
2019-05-13T13:25:04.215Z,4.80
2019-05-13T13:27:59.988Z,6.90
2019-05-13T13:30:04.330Z,7.35
2019-05-13T13:32:32.216Z,4.60
2019-05-13T13:35:03.384Z,5.85
2019-05-13T13:37:33.679Z,4.50
2019-05-13T13:40:02.635Z,8.68
2019-05-13T13:42:33.061Z,5.83
2019-05-13T13:45:04.718Z,6.08
2019-05-13T13:47:33.235Z,4.45
2019-05-13T13:50:00.290Z,5.08
2019-05-13T13:52:28.681Z,9.20
2019-05-13T13:55:02.854Z,3.45
2019-05-13T13:57:27.227Z,5.10
2019-05-13T14:00:20.753Z,4.20
2019-05-13T14:02:25.956Z,3.40
2019-05-13T14:04:55.397Z,5.67
2019-05-13T14:07:00.631Z,5.33
2019-05-13T14:07:34.968Z,4.90
2019-05-13T14:09:53.916Z,6.78
2019-05-13T14:12:22.305Z,2.98
2019-05-13T14:14:52.097Z,5.55
2019-05-13T14:17:21.990Z,5.12
2019-05-13T14:19:52.374Z,5.00
2019-05-13T14:22:21.700Z,5.72
2019-05-13T14:24:51.903Z,6.33
2019-05-13T14:27:22.444Z,4.58
2019-05-13T14:29:52.629Z,4.17
2019-05-13T14:32:22.443Z,6.12
2019-05-13T14:34:52.552Z,4.60
2019-05-13T14:37:22.343Z,5.17
2019-05-13T14:39:51.497Z,6.45
2019-05-13T14:42:22.661Z,3.92
2019-05-13T14:44:52.137Z,2.90
2019-05-13T14:47:21.740Z,3.95
2019-05-13T14:49:52.122Z,3.17
2019-05-13T14:52:22.352Z,3.12
2019-05-13T14:54:51.431Z,3.75
2019-05-13T14:57:21.776Z,5.75
2019-05-13T14:59:51.464Z,2.30
2019-05-13T15:02:20.670Z,4.12
2019-05-13T15:04:49.069Z,3.58
2019-05-13T15:07:17.475Z,5.08
2019-05-13T15:09:45.945Z,4.97
2019-05-13T15:12:14.333Z,3.00
2019-05-13T15:14:43.026Z,4.03
2019-05-13T15:17:12.858Z,3.15
2019-05-13T15:19:42.067Z,3.55
2019-05-13T15:22:11.432Z,4.65
2019-05-13T15:24:41.228Z,3.12
2019-05-13T15:27:10.301Z,3.85
2019-05-13T15:29:38.715Z,2.37
2019-05-13T15:32:07.098Z,3.10
2019-05-13T15:34:35.507Z,4.55
2019-05-13T15:37:04.598Z,4.30
2019-05-13T15:39:33.264Z,3.42
2019-05-13T15:42:02.218Z,2.65
2019-05-13T15:44:32.638Z,2.58
2019-05-13T15:47:03.854Z,3.30
2019-05-13T15:49:32.327Z,3.30
2019-05-13T15:52:02.011Z,4.53
2019-05-13T15:54:32.674Z,4.58
2019-05-13T15:57:02.335Z,2.92
2019-05-13T15:59:30.939Z,3.62
2019-05-13T16:02:01.350Z,3.80
2019-05-13T16:04:29.717Z,3.52
2019-05-13T16:06:58.120Z,2.80
2019-05-13T16:09:26.559Z,5.22
2019-05-13T16:11:54.954Z,3.87
2019-05-13T16:14:23.351Z,3.27
2019-05-13T16:16:51.744Z,3.72
2019-05-13T16:19:22.033Z,4.00
2019-05-13T16:21:51.829Z,2.67
2019-05-13T16:24:21.510Z,2.57
2019-05-13T16:26:52.186Z,5.33
2019-05-13T16:29:22.424Z,2.87
2019-05-13T16:31:51.868Z,2.07
2019-05-13T16:34:22.306Z,2.80
2019-05-13T16:36:53.016Z,2.27
2019-05-13T16:39:21.475Z,3.53
2019-05-13T16:41:51.689Z,4.17
2019-05-13T16:44:22.286Z,3.93
2019-05-13T16:46:51.257Z,3.83
2019-05-13T16:49:21.274Z,5.27
2019-05-13T16:51:51.816Z,3.77
2019-05-13T16:54:21.990Z,3.77
2019-05-13T16:56:51.790Z,4.03
2019-05-13T16:59:21.104Z,3.13
2019-05-13T17:01:51.277Z,3.70
2019-05-13T17:04:21.492Z,4.57
2019-05-13T17:06:50.082Z,4.00
2019-05-13T17:09:18.488Z,4.47
2019-05-13T17:11:46.941Z,3.90
2019-05-13T17:14:15.358Z,3.67
2019-05-13T17:16:43.842Z,4.13
2019-05-13T17:19:12.334Z,3.57
2019-05-13T17:21:41.163Z,4.33
2019-05-13T17:24:12.396Z,3.73
2019-05-13T17:26:41.793Z,4.53
2019-05-13T17:29:11.968Z,5.43
2019-05-13T17:31:41.693Z,3.77
2019-05-13T17:34:12.025Z,2.87
2019-05-13T17:36:41.925Z,4.27
2019-05-13T17:39:12.506Z,5.67
2019-05-13T17:41:41.561Z,4.93
2019-05-13T17:44:11.621Z,5.03
2019-05-13T17:46:41.807Z,3.33
2019-05-13T17:49:11.779Z,4.73
2019-05-13T17:51:42.506Z,6.00
2019-05-13T17:54:11.820Z,4.07
2019-05-13T17:56:41.364Z,4.27
2019-05-13T17:59:11.375Z,4.60
2019-05-13T18:01:41.250Z,3.03
2019-05-13T18:04:11.917Z,5.03
2019-05-13T18:06:41.702Z,4.27
2019-05-13T18:09:12.164Z,4.37
2019-05-13T18:11:43.797Z,3.50
2019-05-13T18:14:12.423Z,5.17
2019-05-13T18:16:41.978Z,4.87
2019-05-13T18:19:11.931Z,4.73
2019-05-13T18:21:42.475Z,3.43
2019-05-13T18:24:11.935Z,6.83
2019-05-13T18:26:41.959Z,5.17
2019-05-13T18:29:12.333Z,7.00
2019-05-13T18:31:41.999Z,4.90
2019-05-13T18:34:12.269Z,7.53
2019-05-13T18:36:42.683Z,10.47
2019-05-13T18:39:12.410Z,4.87
2019-05-13T18:41:41.681Z,7.30
2019-05-13T18:44:12.323Z,5.10
2019-05-13T18:46:41.770Z,4.37
2019-05-13T18:49:11.990Z,4.67
2019-05-13T18:51:43.031Z,5.53
2019-05-13T18:54:11.908Z,5.63
2019-05-13T18:56:41.695Z,4.97
2019-05-13T18:59:12.550Z,6.37
2019-05-13T19:01:40.910Z,5.27
2019-05-13T19:04:11.284Z,4.30
2019-05-13T19:06:42.042Z,3.73
2019-05-13T19:09:11.198Z,7.97
2019-05-13T19:11:42.414Z,6.30
2019-05-13T19:14:12.338Z,4.77
2019-05-13T19:16:42.183Z,4.83
2019-05-13T19:19:14.323Z,5.23
2019-05-13T19:21:41.632Z,3.80
2019-05-13T19:24:13.144Z,3.83
2019-05-13T19:26:41.643Z,6.97
2019-05-13T19:29:11.481Z,7.77
2019-05-13T19:31:41.881Z,5.87
2019-05-13T19:34:12.425Z,5.10
2019-05-13T19:36:40.506Z,5.17
2019-05-13T19:39:11.180Z,5.23
2019-05-13T19:41:39.144Z,4.80
2019-05-13T19:44:07.602Z,6.83
2019-05-13T19:46:36.226Z,7.90
2019-05-13T19:49:04.620Z,7.43
2019-05-13T19:51:33.475Z,6.67
2019-05-13T19:54:02.230Z,4.73
2019-05-13T19:56:31.916Z,7.60
2019-05-13T19:59:01.527Z,5.00
2019-05-13T20:01:32.206Z,12.17
2019-05-13T20:04:02.383Z,4.70
2019-05-13T20:06:31.988Z,6.53
2019-05-13T20:09:01.622Z,4.97
2019-05-13T20:11:30.552Z,5.20
2019-05-13T20:14:01.151Z,5.17
2019-05-13T20:16:29.155Z,4.97
2019-05-13T20:18:57.540Z,6.57
2019-05-13T20:21:25.997Z,5.87
2019-05-13T20:23:54.393Z,6.87
2019-05-13T20:26:22.790Z,5.77
2019-05-13T20:28:51.369Z,6.60
2019-05-13T20:31:21.710Z,4.30
2019-05-13T20:33:51.589Z,3.93
2019-05-13T20:36:22.165Z,8.70
2019-05-13T20:38:51.611Z,4.97
2019-05-13T20:41:22.473Z,5.30
2019-05-13T20:43:52.145Z,5.77
2019-05-13T20:46:23.192Z,7.63
2019-05-13T20:48:51.931Z,4.57
2019-05-13T20:51:21.988Z,5.53
2019-05-13T20:53:51.766Z,4.10
2019-05-13T20:56:21.367Z,5.37
2019-05-13T20:58:51.543Z,5.13
2019-05-13T21:01:20.070Z,7.17
2019-05-13T21:03:48.458Z,4.07
2019-05-13T21:06:16.866Z,3.87
2019-05-13T21:08:45.266Z,5.43
2019-05-13T21:11:13.661Z,5.97
2019-05-13T21:13:42.054Z,5.37
2019-05-13T21:16:11.443Z,6.37
2019-05-13T21:18:42.106Z,4.43
2019-05-13T21:21:11.624Z,4.33
2019-05-13T21:23:41.705Z,5.30
2019-05-13T21:26:13.175Z,7.57
2019-05-13T21:28:41.885Z,5.87
2019-05-13T21:31:11.371Z,5.97
2019-05-13T21:33:41.290Z,3.47
2019-05-13T21:36:12.093Z,7.13
2019-05-13T21:38:41.145Z,4.70
2019-05-13T21:41:11.619Z,5.13
2019-05-13T21:43:41.426Z,5.57
2019-05-13T21:46:11.894Z,5.37
2019-05-13T21:48:41.602Z,2.67
2019-05-13T21:51:13.186Z,3.60
2019-05-13T21:53:41.409Z,2.97
2019-05-13T21:56:12.137Z,4.90
2019-05-13T21:58:41.615Z,4.23
2019-05-13T22:01:10.706Z,4.97
2019-05-13T22:03:39.169Z,3.03
2019-05-13T22:06:07.562Z,3.13
2019-05-13T22:08:35.970Z,5.57
2019-05-13T22:11:04.354Z,2.87
2019-05-13T22:13:32.808Z,3.07
2019-05-13T22:16:01.622Z,3.23
2019-05-13T22:18:31.346Z,2.33
2019-05-13T22:21:01.415Z,3.23
2019-05-13T22:23:32.085Z,2.90
2019-05-13T22:26:01.670Z,2.13
2019-05-13T22:28:31.298Z,3.23
2019-05-13T22:31:01.348Z,3.13
2019-05-13T22:33:32.469Z,2.20
2019-05-13T22:36:01.625Z,4.30
2019-05-13T22:38:32.228Z,3.03
2019-05-13T22:41:01.367Z,1.73
2019-05-13T22:43:32.116Z,2.60
2019-05-13T22:45:59.968Z,3.70
2019-05-13T22:48:28.413Z,1.93
2019-05-13T22:50:56.801Z,1.50
2019-05-13T22:53:25.181Z,3.63
2019-05-13T22:55:53.581Z,3.93
2019-05-13T22:58:22.543Z,3.17
2019-05-13T23:00:51.854Z,3.43
2019-05-13T23:03:20.758Z,3.50
2019-05-13T23:05:49.149Z,2.83
2019-05-13T23:08:17.535Z,2.67
2019-05-13T23:10:45.934Z,3.77
2019-05-13T23:13:14.316Z,2.33
2019-05-13T23:15:42.697Z,3.00
2019-05-13T23:18:11.735Z,2.93
2019-05-13T23:20:41.111Z,3.83
2019-05-13T23:23:11.661Z,2.30
2019-05-13T23:25:40.196Z,1.77
2019-05-13T23:28:11.243Z,2.53
2019-05-13T23:30:41.709Z,2.73
2019-05-13T23:33:11.617Z,3.97
2019-05-13T23:35:41.812Z,4.47
2019-05-13T23:38:10.280Z,3.27
2019-05-13T23:40:38.692Z,3.33
2019-05-13T23:43:07.074Z,4.90
2019-05-13T23:45:35.465Z,4.50
2019-05-13T23:48:03.909Z,4.67
2019-05-13T23:50:32.310Z,5.80
2019-05-13T23:53:00.942Z,3.47
2019-05-13T23:55:29.320Z,3.90
2019-05-13T23:57:57.713Z,4.13
